sensor_id;sensor_type;location;lat;lon;timestamp;pressure;altitude;pressure_sealevel;temperature;humidity
55517;BME280;41724;51.176;-0.708;2023-03-04T00:00:35;102557.26;;;10.03;40.55
55517;BME280;41724;51.176;-0.708;2023-03-04T00:03:02;102553.36;;;9.91;40.41
55517;BME280;41724;51.176;-0.708;2023-03-04T00:05:29;102552.73;;;9.16;41.18
55517;BME280;41724;51.176;-0.708;2023-03-04T00:07:56;102552.11;;;8.95;41.52
55517;BME280;41724;51.176;-0.708;2023-03-04T00:10:24;102549.53;;;8.72;42.46
55517;BME280;41724;51.176;-0.708;2023-03-04T00:12:51;102542.74;;;8.55;42.39
55517;BME280;41724;51.176;-0.708;2023-03-04T00:15:18;102542.73;;;8.87;42.13
55517;BME280;41724;51.176;-0.708;2023-03-04T00:17:45;102540.98;;;8.99;42.45
55517;BME280;41724;51.176;-0.708;2023-03-04T00:20:13;102541.61;;;9.50;41.76
55517;BME280;41724;51.176;-0.708;2023-03-04T00:22:40;102542.61;;;8.77;42.51
55517;BME280;41724;51.176;-0.708;2023-03-04T00:25:08;102546.64;;;9.34;41.54
55517;BME280;41724;51.176;-0.708;2023-03-04T00:27:35;102543.13;;;8.89;42.22
55517;BME280;41724;51.176;-0.708;2023-03-04T00:30:02;102545.53;;;9.20;41.90
55517;BME280;41724;51.176;-0.708;2023-03-04T00:32:30;102543.46;;;9.20;41.98
55517;BME280;41724;51.176;-0.708;2023-03-04T00:34:57;102541.73;;;8.81;41.98
55517;BME280;41724;51.176;-0.708;2023-03-04T00:37:24;102538.69;;;8.89;42.38
55517;BME280;41724;51.176;-0.708;2023-03-04T00:39:51;102543.47;;;8.81;42.59
55517;BME280;41724;51.176;-0.708;2023-03-04T00:42:19;102542.57;;;8.83;42.00
55517;BME280;41724;51.176;-0.708;2023-03-04T00:44:46;102541.93;;;9.14;42.28
55517;BME280;41724;51.176;-0.708;2023-03-04T00:47:13;102542.99;;;8.98;43.34
55517;BME280;41724;51.176;-0.708;2023-03-04T00:49:40;102545.64;;;9.36;42.01
55517;BME280;41724;51.176;-0.708;2023-03-04T00:52:07;102546.72;;;9.11;41.82
55517;BME280;41724;51.176;-0.708;2023-03-04T00:54:35;102548.57;;;9.15;41.82
55517;BME280;41724;51.176;-0.708;2023-03-04T00:57:02;102547.24;;;9.27;41.20
55517;BME280;41724;51.176;-0.708;2023-03-04T00:59:29;102549.56;;;9.29;41.54
55517;BME280;41724;51.176;-0.708;2023-03-04T01:01:56;102551.04;;;9.35;41.26
55517;BME280;41724;51.176;-0.708;2023-03-04T01:04:23;102554.09;;;9.21;41.49
55517;BME280;41724;51.176;-0.708;2023-03-04T01:06:50;102556.74;;;9.39;41.44
55517;BME280;41724;51.176;-0.708;2023-03-04T01:09:18;102556.87;;;9.20;41.49
55517;BME280;41724;51.176;-0.708;2023-03-04T01:11:45;102559.37;;;9.28;42.46
55517;BME280;41724;51.176;-0.708;2023-03-04T01:14:12;102556.85;;;9.01;41.86
55517;BME280;41724;51.176;-0.708;2023-03-04T01:16:40;102559.35;;;9.32;41.86
55517;BME280;41724;51.176;-0.708;2023-03-04T01:19:07;102557.85;;;9.00;41.75
55517;BME280;41724;51.176;-0.708;2023-03-04T01:21:34;102560.77;;;8.53;42.31
55517;BME280;41724;51.176;-0.708;2023-03-04T01:24:01;102561.74;;;8.25;42.63
55517;BME280;41724;51.176;-0.708;2023-03-04T01:26:28;102562.11;;;7.44;45.06
55517;BME280;41724;51.176;-0.708;2023-03-04T01:28:56;102560.69;;;8.25;44.50
55517;BME280;41724;51.176;-0.708;2023-03-04T01:31:23;102559.35;;;6.53;46.57
55517;BME280;41724;51.176;-0.708;2023-03-04T01:33:50;102557.65;;;7.57;45.38
55517;BME280;41724;51.176;-0.708;2023-03-04T01:36:17;102557.65;;;7.87;45.19
55517;BME280;41724;51.176;-0.708;2023-03-04T01:38:45;102558.59;;;7.97;44.58
55517;BME280;41724;51.176;-0.708;2023-03-04T01:41:12;102556.95;;;8.28;43.89
55517;BME280;41724;51.176;-0.708;2023-03-04T01:43:40;102554.73;;;7.63;44.68
55517;BME280;41724;51.176;-0.708;2023-03-04T01:46:09;102553.04;;;8.33;44.36
55517;BME280;41724;51.176;-0.708;2023-03-04T01:48:38;102550.01;;;8.24;44.04
55517;BME280;41724;51.176;-0.708;2023-03-04T01:51:11;102548.24;;;7.93;44.93
55517;BME280;41724;51.176;-0.708;2023-03-04T01:53:38;102549.49;;;7.46;45.92
55517;BME280;41724;51.176;-0.708;2023-03-04T01:56:14;102547.90;;;7.87;45.11
55517;BME280;41724;51.176;-0.708;2023-03-04T01:58:42;102545.84;;;8.00;45.40
55517;BME280;41724;51.176;-0.708;2023-03-04T02:01:10;102540.75;;;8.58;43.87
55517;BME280;41724;51.176;-0.708;2023-03-04T02:03:38;102541.03;;;8.50;44.52
55517;BME280;41724;51.176;-0.708;2023-03-04T02:06:05;102533.28;;;8.41;43.99
55517;BME280;41724;51.176;-0.708;2023-03-04T02:08:33;102531.15;;;8.99;43.11
55517;BME280;41724;51.176;-0.708;2023-03-04T02:11:01;102525.71;;;8.93;42.83
55517;BME280;41724;51.176;-0.708;2023-03-04T02:13:28;102526.17;;;9.03;42.75
55517;BME280;41724;51.176;-0.708;2023-03-04T02:15:56;102520.48;;;9.10;43.12
55517;BME280;41724;51.176;-0.708;2023-03-04T02:18:23;102522.40;;;8.81;43.30
55517;BME280;41724;51.176;-0.708;2023-03-04T02:21:00;102518.34;;;9.17;42.62
55517;BME280;41724;51.176;-0.708;2023-03-04T02:23:39;102513.23;;;8.95;43.08
55517;BME280;41724;51.176;-0.708;2023-03-04T02:26:13;102510.80;;;8.95;42.51
55517;BME280;41724;51.176;-0.708;2023-03-04T02:28:40;102510.12;;;8.95;43.74
55517;BME280;41724;51.176;-0.708;2023-03-04T02:31:21;102503.24;;;8.77;44.12
55517;BME280;41724;51.176;-0.708;2023-03-04T02:33:48;102500.62;;;8.87;43.93
55517;BME280;41724;51.176;-0.708;2023-03-04T02:36:15;102496.60;;;8.33;44.42
55517;BME280;41724;51.176;-0.708;2023-03-04T02:38:42;102496.80;;;9.09;43.85
55517;BME280;41724;51.176;-0.708;2023-03-04T02:41:11;102502.75;;;8.86;43.44
55517;BME280;41724;51.176;-0.708;2023-03-04T02:43:40;102501.73;;;9.14;43.65
55517;BME280;41724;51.176;-0.708;2023-03-04T02:46:09;102500.11;;;9.28;43.44
55517;BME280;41724;51.176;-0.708;2023-03-04T02:48:39;102501.69;;;9.15;43.67
55517;BME280;41724;51.176;-0.708;2023-03-04T02:51:06;102495.68;;;8.62;43.60
55517;BME280;41724;51.176;-0.708;2023-03-04T02:53:32;102490.82;;;8.75;44.18
55517;BME280;41724;51.176;-0.708;2023-03-04T02:55:59;102491.54;;;9.21;43.57
55517;BME280;41724;51.176;-0.708;2023-03-04T02:58:27;102490.52;;;9.47;42.76
55517;BME280;41724;51.176;-0.708;2023-03-04T03:00:54;102489.37;;;9.57;42.94
55517;BME280;41724;51.176;-0.708;2023-03-04T03:03:22;102488.56;;;9.52;42.55
55517;BME280;41724;51.176;-0.708;2023-03-04T03:05:49;102487.10;;;9.54;42.01
55517;BME280;41724;51.176;-0.708;2023-03-04T03:08:16;102488.01;;;9.80;42.15
55517;BME280;41724;51.176;-0.708;2023-03-04T03:10:44;102491.85;;;9.47;42.42
55517;BME280;41724;51.176;-0.708;2023-03-04T03:13:11;102493.35;;;9.55;42.93
55517;BME280;41724;51.176;-0.708;2023-03-04T03:15:39;102489.49;;;9.40;42.89
55517;BME280;41724;51.176;-0.708;2023-03-04T03:18:06;102487.74;;;9.31;42.89
55517;BME280;41724;51.176;-0.708;2023-03-04T03:20:33;102497.26;;;9.08;43.35
55517;BME280;41724;51.176;-0.708;2023-03-04T03:23:01;102501.54;;;9.31;43.81
55517;BME280;41724;51.176;-0.708;2023-03-04T03:25:29;102497.32;;;9.31;43.04
55517;BME280;41724;51.176;-0.708;2023-03-04T03:27:56;102498.86;;;9.12;43.19
55517;BME280;41724;51.176;-0.708;2023-03-04T03:30:23;102500.44;;;9.21;43.28
55517;BME280;41724;51.176;-0.708;2023-03-04T03:32:50;102501.47;;;9.42;43.67
55517;BME280;41724;51.176;-0.708;2023-03-04T03:35:17;102496.39;;;9.23;43.27
55517;BME280;41724;51.176;-0.708;2023-03-04T03:37:44;102503.33;;;9.04;44.01
55517;BME280;41724;51.176;-0.708;2023-03-04T03:40:12;102499.49;;;8.90;43.69
55517;BME280;41724;51.176;-0.708;2023-03-04T03:42:41;102501.79;;;9.49;43.03
55517;BME280;41724;51.176;-0.708;2023-03-04T03:45:09;102503.80;;;9.39;42.85
55517;BME280;41724;51.176;-0.708;2023-03-04T03:47:36;102503.41;;;9.51;43.25
55517;BME280;41724;51.176;-0.708;2023-03-04T03:50:05;102499.74;;;9.43;42.78
55517;BME280;41724;51.176;-0.708;2023-03-04T03:52:32;102496.57;;;9.73;43.21
55517;BME280;41724;51.176;-0.708;2023-03-04T03:55:00;102495.72;;;8.87;43.63
55517;BME280;41724;51.176;-0.708;2023-03-04T03:57:27;102491.84;;;8.34;44.33
55517;BME280;41724;51.176;-0.708;2023-03-04T03:59:54;102492.07;;;8.53;44.31
55517;BME280;41724;51.176;-0.708;2023-03-04T04:02:21;102494.72;;;8.41;45.51
55517;BME280;41724;51.176;-0.708;2023-03-04T04:04:48;102499.01;;;8.60;45.10
55517;BME280;41724;51.176;-0.708;2023-03-04T04:07:16;102499.46;;;8.76;44.45
55517;BME280;41724;51.176;-0.708;2023-03-04T04:09:43;102497.11;;;8.64;44.03
55517;BME280;41724;51.176;-0.708;2023-03-04T04:12:12;102498.89;;;8.90;44.17
55517;BME280;41724;51.176;-0.708;2023-03-04T04:14:40;102497.14;;;8.52;44.39
55517;BME280;41724;51.176;-0.708;2023-03-04T04:17:08;102493.73;;;8.69;45.06
55517;BME280;41724;51.176;-0.708;2023-03-04T04:19:35;102497.09;;;8.69;44.76
55517;BME280;41724;51.176;-0.708;2023-03-04T04:22:03;102498.18;;;8.60;44.97
55517;BME280;41724;51.176;-0.708;2023-03-04T04:24:30;102497.08;;;8.46;44.96
55517;BME280;41724;51.176;-0.708;2023-03-04T04:26:57;102498.14;;;8.59;44.88
55517;BME280;41724;51.176;-0.708;2023-03-04T04:29:25;102498.97;;;8.68;44.37
55517;BME280;41724;51.176;-0.708;2023-03-04T04:31:52;102495.99;;;8.59;44.78
55517;BME280;41724;51.176;-0.708;2023-03-04T04:34:19;102495.99;;;8.50;44.47
55517;BME280;41724;51.176;-0.708;2023-03-04T04:36:46;102495.20;;;8.60;44.86
55517;BME280;41724;51.176;-0.708;2023-03-04T04:39:14;102495.78;;;8.78;44.76
55517;BME280;41724;51.176;-0.708;2023-03-04T04:41:42;102502.85;;;9.05;44.43
55517;BME280;41724;51.176;-0.708;2023-03-04T04:44:10;102506.46;;;9.00;44.10
55517;BME280;41724;51.176;-0.708;2023-03-04T04:46:38;102508.62;;;8.85;44.32
55517;BME280;41724;51.176;-0.708;2023-03-04T04:49:07;102513.49;;;8.79;44.33
55517;BME280;41724;51.176;-0.708;2023-03-04T04:51:35;102515.90;;;8.69;44.58
55517;BME280;41724;51.176;-0.708;2023-03-04T04:54:04;102511.18;;;8.85;44.76
55517;BME280;41724;51.176;-0.708;2023-03-04T04:56:31;102514.13;;;9.22;44.35
55517;BME280;41724;51.176;-0.708;2023-03-04T04:59:01;102513.92;;;9.26;44.47
55517;BME280;41724;51.176;-0.708;2023-03-04T05:01:29;102514.16;;;9.08;44.44
55517;BME280;41724;51.176;-0.708;2023-03-04T05:03:56;102512.49;;;9.34;43.89
55517;BME280;41724;51.176;-0.708;2023-03-04T05:06:23;102511.05;;;9.33;43.75
55517;BME280;41724;51.176;-0.708;2023-03-04T05:08:51;102512.69;;;9.19;44.27
55517;BME280;41724;51.176;-0.708;2023-03-04T05:11:18;102510.77;;;9.36;44.08
55517;BME280;41724;51.176;-0.708;2023-03-04T05:13:47;102511.58;;;9.46;43.68
55517;BME280;41724;51.176;-0.708;2023-03-04T05:16:14;102512.48;;;9.12;44.22
55517;BME280;41724;51.176;-0.708;2023-03-04T05:18:41;102510.30;;;9.36;43.81
55517;BME280;41724;51.176;-0.708;2023-03-04T05:21:08;102509.51;;;9.32;43.50
55517;BME280;41724;51.176;-0.708;2023-03-04T05:23:38;102513.68;;;9.63;43.21
55517;BME280;41724;51.176;-0.708;2023-03-04T05:26:07;102519.54;;;9.24;43.55
55517;BME280;41724;51.176;-0.708;2023-03-04T05:28:35;102514.32;;;9.22;43.41
55517;BME280;41724;51.176;-0.708;2023-03-04T05:31:02;102513.33;;;9.46;43.49
55517;BME280;41724;51.176;-0.708;2023-03-04T05:33:29;102516.78;;;9.41;43.72
55517;BME280;41724;51.176;-0.708;2023-03-04T05:35:57;102512.42;;;9.49;44.12
55517;BME280;41724;51.176;-0.708;2023-03-04T05:38:24;102509.61;;;9.64;43.74
55517;BME280;41724;51.176;-0.708;2023-03-04T05:40:57;102511.16;;;9.68;43.35
55517;BME280;41724;51.176;-0.708;2023-03-04T05:43:25;102511.72;;;9.38;43.20
55517;BME280;41724;51.176;-0.708;2023-03-04T05:45:53;102514.69;;;9.17;43.98
55517;BME280;41724;51.176;-0.708;2023-03-04T05:48:20;102513.85;;;9.42;43.36
55517;BME280;41724;51.176;-0.708;2023-03-04T05:50:51;102510.62;;;9.45;43.26
55517;BME280;41724;51.176;-0.708;2023-03-04T05:53:18;102515.50;;;9.28;43.21
55517;BME280;41724;51.176;-0.708;2023-03-04T05:55:48;102515.74;;;8.97;43.75
55517;BME280;41724;51.176;-0.708;2023-03-04T05:58:17;102515.01;;;9.53;43.26
55517;BME280;41724;51.176;-0.708;2023-03-04T06:00:45;102514.56;;;9.58;42.85
55517;BME280;41724;51.176;-0.708;2023-03-04T06:03:15;102517.23;;;9.46;43.46
55517;BME280;41724;51.176;-0.708;2023-03-04T06:05:42;102522.62;;;9.72;42.39
55517;BME280;41724;51.176;-0.708;2023-03-04T06:08:10;102515.33;;;9.79;42.59
55517;BME280;41724;51.176;-0.708;2023-03-04T06:10:38;102516.79;;;9.54;43.27
55517;BME280;41724;51.176;-0.708;2023-03-04T06:13:05;102516.22;;;9.36;43.28
55517;BME280;41724;51.176;-0.708;2023-03-04T06:15:32;102517.51;;;9.10;43.85
55517;BME280;41724;51.176;-0.708;2023-03-04T06:18:00;102517.07;;;9.07;43.51
55517;BME280;41724;51.176;-0.708;2023-03-04T06:20:27;102516.13;;;8.93;44.52
55517;BME280;41724;51.176;-0.708;2023-03-04T06:22:54;102512.98;;;8.94;43.64
55517;BME280;41724;51.176;-0.708;2023-03-04T06:25:24;102510.83;;;8.61;44.39
55517;BME280;41724;51.176;-0.708;2023-03-04T06:27:51;102511.13;;;8.55;44.49
55517;BME280;41724;51.176;-0.708;2023-03-04T06:30:19;102515.20;;;9.11;43.93
55517;BME280;41724;51.176;-0.708;2023-03-04T06:32:45;102519.88;;;8.97;44.02
55517;BME280;41724;51.176;-0.708;2023-03-04T06:35:15;102522.12;;;9.15;43.69
55517;BME280;41724;51.176;-0.708;2023-03-04T06:37:42;102523.63;;;8.73;43.66
55517;BME280;41724;51.176;-0.708;2023-03-04T06:40:10;102523.38;;;8.20;44.42
55517;BME280;41724;51.176;-0.708;2023-03-04T06:42:38;102517.89;;;8.78;44.39
55517;BME280;41724;51.176;-0.708;2023-03-04T06:45:06;102527.16;;;7.76;44.66
55517;BME280;41724;51.176;-0.708;2023-03-04T06:47:33;102528.71;;;8.22;44.93
55517;BME280;41724;51.176;-0.708;2023-03-04T06:50:00;102534.34;;;8.42;44.99
55517;BME280;41724;51.176;-0.708;2023-03-04T06:52:27;102535.72;;;8.20;45.66
55517;BME280;41724;51.176;-0.708;2023-03-04T06:54:54;102537.61;;;8.05;45.38
55517;BME280;41724;51.176;-0.708;2023-03-04T06:57:22;102540.61;;;8.41;45.05
55517;BME280;41724;51.176;-0.708;2023-03-04T06:59:49;102537.12;;;8.59;44.88
55517;BME280;41724;51.176;-0.708;2023-03-04T07:02:16;102542.41;;;8.16;46.32
55517;BME280;41724;51.176;-0.708;2023-03-04T07:04:43;102543.79;;;8.58;45.10
55517;BME280;41724;51.176;-0.708;2023-03-04T07:07:11;102548.65;;;8.66;44.63
55517;BME280;41724;51.176;-0.708;2023-03-04T07:09:38;102548.33;;;8.93;44.12
55517;BME280;41724;51.176;-0.708;2023-03-04T07:12:05;102550.41;;;9.18;43.68
55517;BME280;41724;51.176;-0.708;2023-03-04T07:14:32;102555.10;;;9.40;43.02
55517;BME280;41724;51.176;-0.708;2023-03-04T07:16:59;102554.81;;;9.33;43.61
55517;BME280;41724;51.176;-0.708;2023-03-04T07:19:27;102556.20;;;9.36;43.05
55517;BME280;41724;51.176;-0.708;2023-03-04T07:21:54;102563.64;;;9.54;42.98
55517;BME280;41724;51.176;-0.708;2023-03-04T07:24:21;102566.60;;;9.27;43.16
55517;BME280;41724;51.176;-0.708;2023-03-04T07:26:48;102567.43;;;9.11;43.09
55517;BME280;41724;51.176;-0.708;2023-03-04T07:29:16;102570.58;;;9.04;43.16
55517;BME280;41724;51.176;-0.708;2023-03-04T07:31:43;102569.26;;;9.18;43.54
55517;BME280;41724;51.176;-0.708;2023-03-04T07:34:12;102569.84;;;9.20;42.95
55517;BME280;41724;51.176;-0.708;2023-03-04T07:36:41;102569.31;;;8.84;43.09
55517;BME280;41724;51.176;-0.708;2023-03-04T07:39:09;102570.40;;;8.77;43.07
55517;BME280;41724;51.176;-0.708;2023-03-04T07:41:37;102568.25;;;8.63;43.74
55517;BME280;41724;51.176;-0.708;2023-03-04T07:44:05;102569.63;;;8.80;43.60
55517;BME280;41724;51.176;-0.708;2023-03-04T07:46:33;102575.06;;;8.78;44.08
55517;BME280;41724;51.176;-0.708;2023-03-04T07:49:00;102579.14;;;9.03;43.85
55517;BME280;41724;51.176;-0.708;2023-03-04T07:51:27;102584.57;;;8.92;44.42
55517;BME280;41724;51.176;-0.708;2023-03-04T07:53:57;102581.22;;;8.28;44.79
55517;BME280;41724;51.176;-0.708;2023-03-04T07:56:26;102587.00;;;8.54;45.63
55517;BME280;41724;51.176;-0.708;2023-03-04T07:58:54;102590.25;;;8.60;45.07
55517;BME280;41724;51.176;-0.708;2023-03-04T08:01:22;102591.71;;;8.68;44.19
55517;BME280;41724;51.176;-0.708;2023-03-04T08:03:50;102589.61;;;9.37;44.13
55517;BME280;41724;51.176;-0.708;2023-03-04T08:06:18;102595.82;;;8.76;44.32
55517;BME280;41724;51.176;-0.708;2023-03-04T08:08:46;102596.12;;;8.64;44.86
55517;BME280;41724;51.176;-0.708;2023-03-04T08:11:16;102595.77;;;8.79;45.94
55517;BME280;41724;51.176;-0.708;2023-03-04T08:13:44;102598.12;;;8.61;45.60
55517;BME280;41724;51.176;-0.708;2023-03-04T08:16:12;102594.25;;;8.42;46.71
55517;BME280;41724;51.176;-0.708;2023-03-04T08:18:39;102595.96;;;8.78;46.02
55517;BME280;41724;51.176;-0.708;2023-03-04T08:21:08;102594.35;;;8.97;46.09
55517;BME280;41724;51.176;-0.708;2023-03-04T08:23:35;102588.38;;;9.11;45.05
55517;BME280;41724;51.176;-0.708;2023-03-04T08:26:08;102587.02;;;9.10;45.09
55517;BME280;41724;51.176;-0.708;2023-03-04T08:28:35;102591.08;;;9.02;45.11
55517;BME280;41724;51.176;-0.708;2023-03-04T08:31:02;102585.65;;;9.35;43.45
55517;BME280;41724;51.176;-0.708;2023-03-04T08:33:30;102584.88;;;9.40;44.29
55517;BME280;41724;51.176;-0.708;2023-03-04T08:35:57;102585.10;;;9.20;44.02
55517;BME280;41724;51.176;-0.708;2023-03-04T08:38:25;102588.30;;;9.51;44.43
55517;BME280;41724;51.176;-0.708;2023-03-04T08:40:52;102586.63;;;8.73;44.62
55517;BME280;41724;51.176;-0.708;2023-03-04T08:43:20;102583.13;;;8.44;45.85
55517;BME280;41724;51.176;-0.708;2023-03-04T08:45:47;102585.64;;;9.21;45.38
55517;BME280;41724;51.176;-0.708;2023-03-04T08:48:15;102582.75;;;8.94;44.92
55517;BME280;41724;51.176;-0.708;2023-03-04T08:50:42;102585.58;;;8.93;44.76
55517;BME280;41724;51.176;-0.708;2023-03-04T08:53:09;102585.62;;;9.34;43.14
55517;BME280;41724;51.176;-0.708;2023-03-04T08:55:37;102583.95;;;9.29;43.98
55517;BME280;41724;51.176;-0.708;2023-03-04T08:58:05;102583.87;;;10.11;42.95
55517;BME280;41724;51.176;-0.708;2023-03-04T09:00:33;102585.80;;;10.09;43.00
55517;BME280;41724;51.176;-0.708;2023-03-04T09:03:01;102584.69;;;10.31;42.61
55517;BME280;41724;51.176;-0.708;2023-03-04T09:05:28;102587.16;;;10.29;43.03
55517;BME280;41724;51.176;-0.708;2023-03-04T09:07:55;102589.23;;;8.96;42.90
55517;BME280;41724;51.176;-0.708;2023-03-04T09:10:23;102590.04;;;8.45;44.67
55517;BME280;41724;51.176;-0.708;2023-03-04T09:12:51;102588.74;;;9.25;43.81
55517;BME280;41724;51.176;-0.708;2023-03-04T09:15:19;102596.16;;;8.99;45.14
55517;BME280;41724;51.176;-0.708;2023-03-04T09:17:46;102597.92;;;9.21;44.76
55517;BME280;41724;51.176;-0.708;2023-03-04T09:20:14;102598.21;;;9.53;44.16
55517;BME280;41724;51.176;-0.708;2023-03-04T09:22:41;102591.46;;;9.93;43.25
55517;BME280;41724;51.176;-0.708;2023-03-04T09:25:13;102590.99;;;9.97;42.93
55517;BME280;41724;51.176;-0.708;2023-03-04T09:27:40;102591.83;;;10.33;42.99
55517;BME280;41724;51.176;-0.708;2023-03-04T09:30:08;102597.53;;;10.12;43.38
55517;BME280;41724;51.176;-0.708;2023-03-04T09:32:36;102597.55;;;9.90;43.85
55517;BME280;41724;51.176;-0.708;2023-03-04T09:35:03;102597.75;;;9.75;44.09
55517;BME280;41724;51.176;-0.708;2023-03-04T09:37:31;102594.66;;;9.50;44.13
55517;BME280;41724;51.176;-0.708;2023-03-04T09:39:58;102600.60;;;9.82;43.86
55517;BME280;41724;51.176;-0.708;2023-03-04T09:42:29;102592.49;;;9.93;42.28
55517;BME280;41724;51.176;-0.708;2023-03-04T09:45:03;102591.66;;;10.07;43.91
55517;BME280;41724;51.176;-0.708;2023-03-04T09:47:33;102592.20;;;10.39;43.59
55517;BME280;41724;51.176;-0.708;2023-03-04T09:50:03;102589.93;;;10.08;45.30
55517;BME280;41724;51.176;-0.708;2023-03-04T09:52:43;102580.29;;;10.32;44.68
55517;BME280;41724;51.176;-0.708;2023-03-04T09:55:19;102581.23;;;10.88;44.24
55517;BME280;41724;51.176;-0.708;2023-03-04T09:57:52;102584.80;;;10.61;42.43
55517;BME280;41724;51.176;-0.708;2023-03-04T10:00:25;102586.04;;;10.24;42.99
55517;BME280;41724;51.176;-0.708;2023-03-04T10:03:10;102580.48;;;10.18;42.13
55517;BME280;41724;51.176;-0.708;2023-03-04T10:05:41;102581.75;;;10.31;41.08
55517;BME280;41724;51.176;-0.708;2023-03-04T10:08:31;102582.32;;;10.57;40.81
55517;BME280;41724;51.176;-0.708;2023-03-04T10:11:07;102577.52;;;10.14;41.10
55517;BME280;41724;51.176;-0.708;2023-03-04T10:13:41;102578.23;;;10.44;41.21
55517;BME280;41724;51.176;-0.708;2023-03-04T10:16:17;102580.94;;;10.29;41.63
55517;BME280;41724;51.176;-0.708;2023-03-04T10:18:49;102579.07;;;10.81;42.34
55517;BME280;41724;51.176;-0.708;2023-03-04T10:21:22;102573.77;;;10.64;42.07
55517;BME280;41724;51.176;-0.708;2023-03-04T10:23:54;102574.35;;;10.52;42.58
55517;BME280;41724;51.176;-0.708;2023-03-04T10:26:22;102572.90;;;10.29;42.72
55517;BME280;41724;51.176;-0.708;2023-03-04T10:28:54;102576.94;;;9.85;43.47
55517;BME280;41724;51.176;-0.708;2023-03-04T10:31:31;102575.17;;;9.67;43.96
55517;BME280;41724;51.176;-0.708;2023-03-04T10:33:58;102571.03;;;10.38;43.91
55517;BME280;41724;51.176;-0.708;2023-03-04T10:36:38;102570.69;;;10.37;41.85
55517;BME280;41724;51.176;-0.708;2023-03-04T10:39:12;102566.03;;;10.59;41.76
55517;BME280;41724;51.176;-0.708;2023-03-04T10:41:44;102560.42;;;11.17;40.42
55517;BME280;41724;51.176;-0.708;2023-03-04T10:44:15;102550.60;;;11.10;38.68
55517;BME280;41724;51.176;-0.708;2023-03-04T10:46:44;102555.26;;;11.12;38.97
55517;BME280;41724;51.176;-0.708;2023-03-04T10:49:13;102551.09;;;11.07;40.43
55517;BME280;41724;51.176;-0.708;2023-03-04T10:51:42;102558.80;;;10.47;41.31
55517;BME280;41724;51.176;-0.708;2023-03-04T10:54:21;102553.95;;;10.82;39.78
55517;BME280;41724;51.176;-0.708;2023-03-04T10:56:55;102557.28;;;10.36;40.06
55517;BME280;41724;51.176;-0.708;2023-03-04T10:59:32;102555.20;;;10.61;40.80
55517;BME280;41724;51.176;-0.708;2023-03-04T11:02:00;102551.96;;;10.47;39.91
55517;BME280;41724;51.176;-0.708;2023-03-04T11:04:32;102547.75;;;10.95;39.19
55517;BME280;41724;51.176;-0.708;2023-03-04T11:07:00;102548.14;;;11.14;39.25
55517;BME280;41724;51.176;-0.708;2023-03-04T11:09:29;102545.44;;;10.61;39.68
55517;BME280;41724;51.176;-0.708;2023-03-04T11:11:59;102544.37;;;11.10;38.76
55517;BME280;41724;51.176;-0.708;2023-03-04T11:14:30;102549.69;;;10.54;39.62
55517;BME280;41724;51.176;-0.708;2023-03-04T11:17:14;102552.53;;;10.02;39.12
55517;BME280;41724;51.176;-0.708;2023-03-04T11:19:46;102550.88;;;10.69;39.07
55517;BME280;41724;51.176;-0.708;2023-03-04T11:22:19;102547.28;;;10.62;39.20
55517;BME280;41724;51.176;-0.708;2023-03-04T11:24:53;102548.67;;;10.54;40.18
55517;BME280;41724;51.176;-0.708;2023-03-04T11:27:27;102540.20;;;11.08;39.58
55517;BME280;41724;51.176;-0.708;2023-03-04T11:30:01;102536.40;;;11.32;39.41
55517;BME280;41724;51.176;-0.708;2023-03-04T11:32:33;102533.92;;;10.91;40.35
55517;BME280;41724;51.176;-0.708;2023-03-04T11:35:13;102529.31;;;10.87;39.05
55517;BME280;41724;51.176;-0.708;2023-03-04T11:37:47;102529.19;;;11.61;38.62
55517;BME280;41724;51.176;-0.708;2023-03-04T11:40:24;102526.20;;;11.98;36.53
55517;BME280;41724;51.176;-0.708;2023-03-04T11:42:58;102524.02;;;11.25;35.55
55517;BME280;41724;51.176;-0.708;2023-03-04T11:45:33;102523.31;;;11.48;36.06
55517;BME280;41724;51.176;-0.708;2023-03-04T11:48:11;102526.97;;;11.38;35.70
55517;BME280;41724;51.176;-0.708;2023-03-04T11:50:46;102528.52;;;10.71;38.47
55517;BME280;41724;51.176;-0.708;2023-03-04T11:53:24;102529.22;;;11.34;37.84
55517;BME280;41724;51.176;-0.708;2023-03-04T11:56:08;102529.10;;;10.91;39.77
55517;BME280;41724;51.176;-0.708;2023-03-04T12:00:03;102523.99;;;10.44;38.87
55517;BME280;41724;51.176;-0.708;2023-03-04T12:02:41;102522.04;;;10.88;39.29
55517;BME280;41724;51.176;-0.708;2023-03-04T12:05:39;102518.74;;;10.43;38.39
55517;BME280;41724;51.176;-0.708;2023-03-04T12:08:26;102516.63;;;11.25;38.04
55517;BME280;41724;51.176;-0.708;2023-03-04T12:11:03;102513.57;;;11.19;38.21
55517;BME280;41724;51.176;-0.708;2023-03-04T12:13:46;102510.46;;;11.17;39.13
55517;BME280;41724;51.176;-0.708;2023-03-04T12:16:29;102505.96;;;11.03;38.82
55517;BME280;41724;51.176;-0.708;2023-03-04T12:19:17;102503.95;;;10.62;39.11
55517;BME280;41724;51.176;-0.708;2023-03-04T12:22:03;102497.78;;;10.91;39.48
55517;BME280;41724;51.176;-0.708;2023-03-04T12:24:57;102492.22;;;10.61;38.26
55517;BME280;41724;51.176;-0.708;2023-03-04T12:27:36;102487.40;;;11.42;38.30
55517;BME280;41724;51.176;-0.708;2023-03-04T12:30:19;102487.03;;;11.46;37.80
55517;BME280;41724;51.176;-0.708;2023-03-04T12:32:57;102484.60;;;11.32;37.73
55517;BME280;41724;51.176;-0.708;2023-03-04T12:35:37;102481.50;;;10.57;37.29
55517;BME280;41724;51.176;-0.708;2023-03-04T12:38:23;102482.01;;;10.99;37.02
55517;BME280;41724;51.176;-0.708;2023-03-04T12:41:00;102478.28;;;10.40;37.88
55517;BME280;41724;51.176;-0.708;2023-03-04T12:43:40;102468.78;;;11.27;37.34
55517;BME280;41724;51.176;-0.708;2023-03-04T12:46:22;102465.30;;;11.73;37.22
55517;BME280;41724;51.176;-0.708;2023-03-04T12:49:08;102462.63;;;11.10;36.00
55517;BME280;41724;51.176;-0.708;2023-03-04T12:51:50;102457.09;;;11.99;36.82
55517;BME280;41724;51.176;-0.708;2023-03-04T12:54:26;102454.27;;;11.71;36.42
55517;BME280;41724;51.176;-0.708;2023-03-04T12:56:59;102452.52;;;11.41;37.73
55517;BME280;41724;51.176;-0.708;2023-03-04T12:59:35;102452.10;;;11.66;38.29
55517;BME280;41724;51.176;-0.708;2023-03-04T13:02:26;102447.58;;;11.78;37.66